createdAt,value
2022-09-16T00:00:08.743Z,0.056840003
2022-09-16T00:01:12.027Z,0.064960003
2022-09-16T00:02:12.338Z,0.089320004
2022-09-16T00:03:16.149Z,0.129920006
2022-09-16T00:04:13.414Z,0.121800005
2022-09-16T00:05:16.216Z,0.097440004
2022-09-16T00:06:10.675Z,0.105560005
2022-09-16T00:07:14.046Z,0.081200004
2022-09-16T00:08:16.163Z,0.089320004
2022-09-16T00:09:14.544Z,0
2022-09-16T00:10:17.391Z,0.056840003
2022-09-16T00:11:14.190Z,0.089320004
2022-09-16T00:12:18.295Z,0.040600002
2022-09-16T00:14:22.051Z,0.105560005
2022-09-16T00:15:21.459Z,0.048720002
2022-09-16T00:16:20.695Z,0.121800005
2022-09-16T00:17:22.136Z,0.089320004
2022-09-16T00:19:28.632Z,0.056840003
2022-09-16T00:20:32.528Z,0.056840003
2022-09-16T00:21:33.512Z,0.105560005
2022-09-16T00:22:31.624Z,0.056840003
2022-09-16T00:24:32.684Z,0.064960003
2022-09-16T00:25:33.876Z,0.129920006
2022-09-16T00:26:39.840Z,0.064960003
2022-09-16T00:27:43.953Z,0.073080003
2022-09-16T00:28:41.387Z,0.081200004
2022-09-16T00:29:41.936Z,0.089320004
2022-09-16T00:30:37.266Z,0.097440004
2022-09-16T00:31:37.972Z,0.056840003
2022-09-16T00:34:30.160Z,0.113680005
2022-09-16T00:35:31.916Z,0.081200004
2022-09-16T00:36:31.923Z,0.113680005
2022-09-16T00:37:27.284Z,0.105560005
2022-09-16T00:38:29.400Z,0.097440004
2022-09-16T00:39:28.838Z,0.154280007
2022-09-16T00:40:24.241Z,0.162400007
2022-09-16T00:41:24.158Z,0.154280007
2022-09-16T00:42:21.655Z,0.073080003
2022-09-16T00:44:20.354Z,0.056840003
2022-09-16T00:45:23.555Z,0.073080003
2022-09-16T00:46:19.064Z,0.048720002
2022-09-16T00:47:19.574Z,0.129920006
2022-09-16T00:49:23.923Z,0.073080003
2022-09-16T00:50:18.316Z,0.105560005
2022-09-16T00:51:19.202Z,0.097440004
2022-09-16T00:52:21.300Z,0.064960003
2022-09-16T00:53:15.446Z,0.129920006
2022-09-16T00:54:15.240Z,0.056840003
2022-09-16T00:55:11.029Z,0.097440004
2022-09-16T00:56:12.628Z,0.056840003
2022-09-16T00:57:11.729Z,0.081200004
2022-09-16T00:59:21.907Z,0.121800005
2022-09-16T01:00:20.363Z,0.105560005
2022-09-16T01:01:24.579Z,0.129920006
2022-09-16T01:02:22.775Z,0.048720002
2022-09-16T01:04:23.374Z,0.048720002
2022-09-16T01:05:15.891Z,0.081200004
2022-09-16T01:06:18.475Z,0.129920006
2022-09-16T01:07:11.552Z,0.129920006
2022-09-16T01:08:11.783Z,0.105560005
2022-09-16T01:09:06.673Z,0.121800005
2022-09-16T01:10:07.384Z,0.121800005
2022-09-16T01:11:07.460Z,0.105560005
2022-09-16T01:12:08.075Z,0.073080003
2022-09-16T01:13:15.075Z,0.121800005
2022-09-16T01:14:11.192Z,0.081200004
2022-09-16T01:16:40.916Z,0.097440004
2022-09-16T01:18:47.091Z,0.170520008
2022-09-16T01:19:48.686Z,0.064960003
2022-09-16T01:20:47.855Z,0.113680005
2022-09-16T01:21:55.505Z,0.073080003
2022-09-16T01:23:53.366Z,0.089320004
2022-09-16T01:24:56.066Z,0.016240001
2022-09-16T01:25:52.393Z,0.081200004
2022-09-16T01:26:54.107Z,0.121800005
2022-09-16T01:27:50.232Z,0.105560005
2022-09-16T01:28:52.497Z,0.097440004
2022-09-16T01:29:55.197Z,0.048720002
2022-09-16T01:30:51.571Z,0.00812
2022-09-16T01:31:58.889Z,0.146160007
2022-09-16T01:32:57.013Z,0.073080003
2022-09-16T01:34:03.976Z,0.089320004
2022-09-16T01:35:00.723Z,0.105560005
2022-09-16T01:36:06.927Z,0.154280007
2022-09-16T01:37:11.438Z,0.146160007
2022-09-16T01:38:06.771Z,0.121800005
2022-09-16T01:39:05.102Z,0.121800005
2022-09-16T01:40:07.007Z,0.089320004
2022-09-16T01:41:06.161Z,0.105560005
2022-09-16T01:42:07.903Z,0.097440004
2022-09-16T01:44:14.528Z,0.073080003
2022-09-16T01:45:14.353Z,0.073080003
2022-09-16T01:46:16.020Z,0.089320004
2022-09-16T01:47:26.286Z,0.064960003
2022-09-16T01:49:20.864Z,0.146160007
2022-09-16T01:50:21.071Z,0.129920006
2022-09-16T01:51:21.440Z,0.138040006
2022-09-16T01:52:31.707Z,0.040600002
2022-09-16T01:55:05.873Z,0.154280007
2022-09-16T01:57:58.387Z,0.064960003
2022-09-16T01:58:55.631Z,0.056840003
2022-09-16T01:59:53.740Z,0.048720002
2022-09-16T02:00:48.352Z,0.097440004
2022-09-16T02:01:51.881Z,0.105560005
2022-09-16T02:03:50.585Z,0.032480001
2022-09-16T02:04:49.768Z,0.056840003
2022-09-16T02:05:48.051Z,0.024360001
2022-09-16T02:06:46.011Z,0.121800005
2022-09-16T02:08:40.113Z,0.056840003
2022-09-16T02:09:44.587Z,0.089320004
2022-09-16T02:10:37.040Z,0.024360001
2022-09-16T02:11:38.805Z,0.113680005
2022-09-16T02:12:40.567Z,0.024360001
2022-09-16T02:14:45.679Z,0.081200004
2022-09-16T02:15:44.247Z,0.048720002
2022-09-16T02:16:48.137Z,0.138040006
2022-09-16T02:18:46.341Z,0.048720002
2022-09-16T02:19:47.402Z,0.073080003
2022-09-16T02:20:49.670Z,0.129920006
2022-09-16T02:21:45.628Z,0.105560005
2022-09-16T02:22:49.737Z,0.048720002
2022-09-16T02:24:34.209Z,0.048720002
2022-09-16T02:25:36.570Z,0.040600002
2022-09-16T02:26:30.866Z,0.121800005
2022-09-16T02:27:30.226Z,0.146160007
2022-09-16T02:29:26.509Z,0.016240001
2022-09-16T02:30:24.370Z,0.081200004
2022-09-16T02:31:18.699Z,0.129920006
2022-09-16T02:32:16.218Z,0.121800005
2022-09-16T02:33:10.535Z,0.032480001
2022-09-16T02:34:08.789Z,0.024360001
2022-09-16T02:35:05.133Z,0.064960003
2022-09-16T02:35:58.602Z,0.129920006
2022-09-16T02:37:04.154Z,0.056840003
2022-09-16T02:38:00.027Z,0.064960003
2022-09-16T02:40:44.178Z,0.097440004
2022-09-16T02:41:45.706Z,-0.00812
2022-09-16T02:42:58.497Z,0.048720002
2022-09-16T02:43:57.627Z,0.064960003
2022-09-16T02:44:58.827Z,0.056840003
2022-09-16T02:45:57.994Z,0.097440004
2022-09-16T02:46:58.652Z,0.121800005
2022-09-16T02:49:04.797Z,0.129920006
2022-09-16T02:49:59.185Z,0.113680005
2022-09-16T02:51:07.324Z,0.097440004
2022-09-16T02:52:05.292Z,0.064960003
2022-09-16T02:54:03.098Z,0.113680005
2022-09-16T02:55:02.150Z,0.154280007
2022-09-16T02:55:56.502Z,0.032480001
2022-09-16T02:56:52.708Z,0.089320004
2022-09-16T02:58:48.305Z,0.089320004
2022-09-16T02:59:51.943Z,0.089320004
2022-09-16T03:00:49.078Z,0.081200004
2022-09-16T03:01:52.360Z,0.081200004
2022-09-16T03:02:47.091Z,0.040600002
2022-09-16T03:03:46.861Z,0.089320004
2022-09-16T03:04:44.029Z,0.040600002
2022-09-16T03:05:45.278Z,0
2022-09-16T03:06:43.505Z,0.081200004
2022-09-16T03:07:42.146Z,0.178640008
2022-09-16T03:09:36.044Z,0.097440004
2022-09-16T03:10:31.216Z,0.089320004
2022-09-16T03:11:34.398Z,0.064960003
2022-09-16T03:12:26.501Z,0.105560005
2022-09-16T03:14:21.297Z,0.097440004
2022-09-16T03:15:20.096Z,0.089320004
2022-09-16T03:16:19.420Z,0.097440004
2022-09-16T03:17:21.733Z,0.073080003
2022-09-16T03:20:20.454Z,0.170520008
2022-09-16T03:21:17.877Z,0.162400007
2022-09-16T03:22:17.753Z,0.048720002
2022-09-16T03:24:17.366Z,0.024360001
2022-09-16T03:25:14.604Z,0.040600002
2022-09-16T03:26:17.691Z,0.113680005
2022-09-16T03:27:13.087Z,0.089320004
2022-09-16T03:28:14.682Z,0.089320004
2022-09-16T03:29:10.007Z,0.089320004
2022-09-16T03:30:10.999Z,0.048720002
2022-09-16T03:31:07.369Z,0.203000009
2022-09-16T03:32:07.644Z,0.170520008
2022-09-16T03:34:07.334Z,0.121800005
2022-09-16T03:35:02.996Z,0.121800005
2022-09-16T03:36:04.918Z,0.113680005
2022-09-16T03:37:02.948Z,0.073080003
2022-09-16T03:39:00.527Z,0.097440004
2022-09-16T03:40:03.733Z,0.048720002
2022-09-16T03:40:59.055Z,0.146160007
2022-09-16T03:42:01.375Z,0.064960003
2022-09-16T03:43:04.681Z,0.138040006
2022-09-16T03:44:03.043Z,0.121800005
2022-09-16T03:44:59.183Z,0.129920006
2022-09-16T03:45:57.288Z,0.081200004
2022-09-16T03:46:57.066Z,0.089320004
2022-09-16T03:47:52.326Z,0.064960003
2022-09-16T03:48:54.440Z,0.113680005
2022-09-16T03:49:56.318Z,0.097440004
2022-09-16T03:50:52.880Z,0.097440004
2022-09-16T03:51:53.349Z,0.040600002
2022-09-16T03:53:53.871Z,0.089320004
2022-09-16T03:56:29.535Z,0.056840003
2022-09-16T03:57:30.429Z,0.073080003
2022-09-16T03:58:34.867Z,0.040600002
2022-09-16T03:59:32.420Z,0.105560005
2022-09-16T04:00:36.452Z,0.073080003
2022-09-16T04:01:33.126Z,0.113680005
2022-09-16T04:02:35.044Z,0.081200004
2022-09-16T04:03:33.380Z,0.089320004
2022-09-16T04:04:33.473Z,0.186760008
2022-09-16T04:05:33.577Z,0.121800005
2022-09-16T04:06:35.672Z,0.073080003
2022-09-16T04:07:33.657Z,0.105560005
2022-09-16T04:09:30.758Z,0.064960003
2022-09-16T04:10:31.323Z,0.048720002
2022-09-16T04:11:30.587Z,0.073080003
2022-09-16T04:12:33.744Z,0.186760008
2022-09-16T04:14:33.289Z,0.040600002
2022-09-16T04:15:36.694Z,0.016240001
2022-09-16T04:16:34.819Z,0.048720002
2022-09-16T04:17:33.829Z,0.097440004
2022-09-16T04:19:33.656Z,0.048720002
2022-09-16T04:20:37.133Z,0.089320004
2022-09-16T04:21:31.747Z,0.081200004
2022-09-16T04:22:34.710Z,0.113680005
2022-09-16T04:24:35.832Z,0.097440004
2022-09-16T04:25:37.220Z,0.113680005
2022-09-16T04:26:40.171Z,0.138040006
2022-09-16T04:27:34.450Z,0.105560005
2022-09-16T04:28:36.569Z,0.097440004
2022-09-16T04:29:39.821Z,0.089320004
2022-09-16T04:30:38.382Z,0.097440004
2022-09-16T04:32:35.902Z,0.235480011
2022-09-16T04:34:34.303Z,0.105560005
2022-09-16T04:35:29.518Z,0.113680005
2022-09-16T04:36:30.772Z,0.073080003
2022-09-16T04:37:27.276Z,0.073080003
2022-09-16T04:38:28.129Z,0.064960003
2022-09-16T04:39:23.587Z,0.105560005
2022-09-16T04:40:27.681Z,0.113680005
2022-09-16T04:41:22.800Z,0.170520008
2022-09-16T04:42:28.337Z,0.048720002
2022-09-16T04:44:25.686Z,0.105560005
2022-09-16T04:45:22.754Z,0.089320004
2022-09-16T04:46:22.602Z,0.097440004
2022-09-16T04:47:18.001Z,0.105560005
2022-09-16T04:49:23.311Z,0.040600002
2022-09-16T04:50:27.009Z,0.073080003
2022-09-16T04:51:30.328Z,0.040600002
2022-09-16T04:52:27.932Z,0
2022-09-16T04:53:27.222Z,0.138040006
2022-09-16T04:54:25.931Z,0.073080003
2022-09-16T04:55:26.781Z,0.097440004
2022-09-16T04:56:32.874Z,0.081200004
2022-09-16T04:57:35.817Z,0.146160007
2022-09-16T04:58:30.440Z,0.113680005
2022-09-16T04:59:29.103Z,0.146160007
2022-09-16T05:00:28.997Z,0.121800005
2022-09-16T05:01:25.767Z,0.129920006
2022-09-16T05:02:34.348Z,0.032480001
2022-09-16T05:04:30.679Z,0.129920006
2022-09-16T05:06:55.935Z,0.089320004
2022-09-16T05:09:02.801Z,0.048720002
2022-09-16T05:09:58.199Z,0.064960003
2022-09-16T05:10:57.694Z,0.097440004
2022-09-16T05:11:53.352Z,0.081200004
2022-09-16T05:13:48.573Z,0.154280007
2022-09-16T05:14:54.594Z,0.113680005
2022-09-16T05:15:51.297Z,0.081200004
2022-09-16T05:16:52.868Z,0.154280007
2022-09-16T05:18:50.764Z,0.105560005
2022-09-16T05:19:46.774Z,0.105560005
2022-09-16T05:20:47.004Z,0.097440004
2022-09-16T05:21:42.198Z,0.170520008
2022-09-16T05:22:42.154Z,0.073080003
2022-09-16T05:23:37.488Z,0.105560005
2022-09-16T05:24:44.491Z,0.154280007
2022-09-16T05:25:41.453Z,0.081200004
2022-09-16T05:26:41.834Z,0.154280007
2022-09-16T05:27:37.021Z,0.170520008
2022-09-16T05:29:36.947Z,0.097440004
2022-09-16T05:30:35.788Z,0.113680005
2022-09-16T05:31:30.273Z,0.170520008
2022-09-16T05:32:30.241Z,0.097440004
2022-09-16T05:34:22.267Z,0.186760008
2022-09-16T05:35:22.997Z,0.194880009
2022-09-16T05:36:17.289Z,0.211120009
2022-09-16T05:37:27.051Z,0.097440004
2022-09-16T05:39:24.867Z,0.178640008
2022-09-16T05:40:16.416Z,0.146160007
2022-09-16T05:41:19.264Z,0.373520017
2022-09-16T05:42:11.880Z,0.276080012
2022-09-16T05:44:14.172Z,0.073080003
2022-09-16T05:45:10.665Z,0.203000009
2022-09-16T05:47:40.916Z,0.267960012
2022-09-16T05:49:47.305Z,0.097440004
2022-09-16T05:50:48.242Z,0.178640008
2022-09-16T05:51:46.293Z,0.162400007
2022-09-16T05:52:44.014Z,0.194880009
2022-09-16T05:53:46.311Z,0.186760008
2022-09-16T05:54:46.971Z,0.162400007
2022-09-16T05:55:43.457Z,0.292320013
2022-09-16T05:56:44.870Z,0.194880009
2022-09-16T05:57:42.036Z,0.276080012
2022-09-16T05:58:44.110Z,0.113680005
2022-09-16T05:59:46.355Z,0.203000009
2022-09-16T06:00:42.801Z,0.211120009
2022-09-16T06:01:44.637Z,0.251720011
2022-09-16T06:02:42.020Z,0.21924001
2022-09-16T06:04:41.552Z,0.276080012
2022-09-16T06:05:45.798Z,0.154280007
2022-09-16T06:06:40.605Z,0.211120009
2022-09-16T06:07:42.269Z,0.22736001
2022-09-16T06:09:41.550Z,0.284200013
2022-09-16T06:10:39.519Z,0.211120009
2022-09-16T06:11:39.544Z,0.284200013
2022-09-16T06:12:41.661Z,0.203000009
2022-09-16T06:14:39.958Z,0.267960012
2022-09-16T06:15:38.751Z,0.341040015
2022-09-16T06:16:42.776Z,0.146160007
2022-09-16T06:17:37.623Z,0.178640008
2022-09-16T06:18:44.954Z,0.186760008
2022-09-16T06:19:38.622Z,0.194880009
2022-09-16T06:20:38.931Z,0.22736001
2022-09-16T06:24:21.135Z,0.186760008
2022-09-16T06:25:21.914Z,0.170520008
2022-09-16T06:26:16.372Z,0.162400007
2022-09-16T06:27:16.150Z,0.154280007
2022-09-16T06:28:11.337Z,0.251720011
2022-09-16T06:29:11.139Z,0.138040006
2022-09-16T06:30:06.439Z,0.162400007
2022-09-16T06:31:06.482Z,0.154280007
2022-09-16T06:32:00.911Z,0.243600011
2022-09-16T06:33:02.741Z,0.186760008
2022-09-16T06:33:57.972Z,0.194880009
2022-09-16T06:34:58.120Z,0.22736001
2022-09-16T06:35:53.375Z,0.292320013
2022-09-16T06:36:52.782Z,0.186760008
2022-09-16T06:37:48.101Z,0.211120009
2022-09-16T06:38:48.470Z,0.267960012
2022-09-16T06:39:48.640Z,0.373520017
2022-09-16T06:40:41.043Z,0.138040006
2022-09-16T06:41:47.934Z,0.211120009
2022-09-16T06:42:42.187Z,0.211120009
2022-09-16T06:44:44.837Z,0.284200013
2022-09-16T06:45:44.621Z,0.284200013
2022-09-16T06:46:40.004Z,0.300440013
2022-09-16T06:47:41.950Z,0.308560014
2022-09-16T06:48:38.451Z,0.308560014
2022-09-16T06:49:41.237Z,0.243600011
2022-09-16T06:50:33.896Z,0.276080012
2022-09-16T06:51:31.000Z,0.194880009
2022-09-16T06:52:30.554Z,0.146160007
2022-09-16T06:54:24.281Z,0.365400016
2022-09-16T06:55:28.602Z,0.22736001
2022-09-16T06:56:31.400Z,0.235480011
2022-09-16T06:57:23.497Z,0.21924001
2022-09-16T06:59:20.133Z,0.316680014
2022-09-16T07:01:48.413Z,0.357280016
2022-09-16T07:02:46.746Z,0.365400016
2022-09-16T07:03:45.793Z,0.21924001
2022-09-16T07:04:41.059Z,0.406000018
2022-09-16T07:05:39.638Z,0.406000018
2022-09-16T07:07:08.134Z,0.349160016
2022-09-16T07:07:34.804Z,0.503440022
2022-09-16T07:09:27.501Z,0.495320022
2022-09-16T07:10:27.057Z,0.479080021
2022-09-16T07:11:22.652Z,0.592760026
2022-09-16T07:12:23.456Z,0.406000018
2022-09-16T07:14:18.356Z,0.44660002
2022-09-16T07:15:13.682Z,0.560280025
2022-09-16T07:16:14.503Z,0.381640017
2022-09-16T07:17:09.662Z,0.560280025
2022-09-16T07:18:11.042Z,0.45472002
2022-09-16T07:19:04.669Z,0.316680014
2022-09-16T07:20:05.653Z,0.519680023
2022-09-16T07:21:00.431Z,0.592760026
2022-09-16T07:22:00.341Z,0.519680023
2022-09-16T07:22:59.440Z,0.698320031
2022-09-16T07:23:54.570Z,0.925680041
2022-09-16T07:24:56.235Z,0.803880036
2022-09-16T07:25:51.188Z,0.649600029
2022-09-16T07:26:53.197Z,0.600880027
2022-09-16T07:27:45.644Z,0.787640035
2022-09-16T07:29:44.487Z,0.812000036
2022-09-16T07:30:37.190Z,1.047480106
2022-09-16T07:31:39.203Z,0.868840039
2022-09-16T07:34:04.432Z,1.169280052
2022-09-16T07:35:00.318Z,0.990640044
2022-09-16T07:35:59.995Z,0.982520044
2022-09-16T07:36:55.261Z,1.071840048
2022-09-16T07:38:50.239Z,1.112440109
2022-09-16T07:39:50.960Z,1.023120046
2022-09-16T07:40:46.121Z,0.974400043
2022-09-16T07:41:47.609Z,1.071840048
2022-09-16T07:42:40.047Z,1.096199989
2022-09-16T07:43:44.245Z,0.966280043
2022-09-16T07:44:38.753Z,0.917560041
2022-09-16T07:45:36.293Z,1.128679991
2022-09-16T07:46:38.811Z,1.315440059
2022-09-16T07:47:31.129Z,1.047480106
2022-09-16T07:48:35.079Z,1.153040051
2022-09-16T07:49:30.401Z,1.12056005
2022-09-16T07:50:22.865Z,1.356040001
2022-09-16T07:51:25.734Z,1.323559999
2022-09-16T07:52:18.185Z,1.599640131
2022-09-16T07:54:13.709Z,1.697080135
2022-09-16T07:55:16.288Z,1.437240124
2022-09-16T07:56:09.022Z,1.632120132
2022-09-16T07:57:11.288Z,1.34792006
2022-09-16T07:58:03.656Z,1.250480056
2022-09-16T07:59:03.575Z,1.136800051
2022-09-16T07:59:58.856Z,3.296720028
2022-09-16T08:01:04.005Z,4.287360191
2022-09-16T08:01:05.167Z,4.287360191
2022-09-16T08:01:57.602Z,1.697080135
2022-09-16T08:03:55.925Z,0.747040033
2022-09-16T08:04:51.066Z,0.755160034
2022-09-16T08:05:50.580Z,1.136800051
2022-09-16T08:06:45.878Z,2.379160166
2022-09-16T08:07:43.246Z,0.909440041
2022-09-16T08:08:42.881Z,2.533440113
2022-09-16T08:10:07.744Z,-0.081200004
2022-09-16T08:10:48.165Z,3.223640203
2022-09-16T08:11:47.271Z,4.47412014
2022-09-16T08:12:46.641Z,1.047480106
2022-09-16T08:13:43.196Z,8.639680862
2022-09-16T08:14:45.201Z,8.201200485
2022-09-16T08:15:42.131Z,8.867040634
2022-09-16T08:16:43.466Z,5.740840435
2022-09-16T08:17:39.909Z,6.552840233
2022-09-16T08:19:38.417Z,8.712759972
2022-09-16T08:20:43.154Z,8.680280685
2022-09-16T08:21:36.831Z,3.207400084
2022-09-16T08:22:36.649Z,7.624680519
2022-09-16T08:23:38.213Z,8.53412056
2022-09-16T08:24:35.575Z,9.01320076
2022-09-16T08:25:37.720Z,10.6940403
2022-09-16T08:26:35.141Z,4.360440254
2022-09-16T08:27:36.266Z,0.990640044
2022-09-16T08:28:40.162Z,3.394160271
2022-09-16T08:28:51.063Z,3.394160271
2022-09-16T08:29:04.670Z,3.394160271
2022-09-16T08:29:34.775Z,8.956360817
2022-09-16T08:30:31.354Z,5.927600384
2022-09-16T08:31:34.184Z,1.762040138
2022-09-16T08:32:30.632Z,1.542800069
2022-09-16T08:33:32.091Z,6.098120213
2022-09-16T08:34:29.430Z,6.999440193
2022-09-16T08:35:31.067Z,5.708360195
2022-09-16T08:36:27.182Z,1.851360083
2022-09-16T08:37:29.927Z,1.412880063
2022-09-16T08:38:24.121Z,1.323559999
2022-09-16T08:39:26.750Z,1.112440109
2022-09-16T08:41:20.368Z,1.088080049
2022-09-16T08:42:15.630Z,0.909440041
2022-09-16T08:44:14.509Z,1.023120046
2022-09-16T08:45:10.247Z,1.356040001
2022-09-16T08:46:13.622Z,4.896360397
2022-09-16T08:47:07.189Z,1.956920147
2022-09-16T08:48:10.461Z,3.605280161
2022-09-16T08:49:04.155Z,2.48472023
2022-09-16T08:50:43.445Z,4.124959946
2022-09-16T08:51:42.639Z,3.678360224
2022-09-16T08:52:39.934Z,1.510320067
2022-09-16T08:55:19.085Z,2.679600239
2022-09-16T08:57:30.365Z,-0.089320004
2022-09-16T08:59:05.514Z,1.429120064
2022-09-16T09:00:04.263Z,1.429120064
2022-09-16T09:00:57.974Z,1.112440109
2022-09-16T09:01:57.257Z,1.274840117
2022-09-16T09:02:50.821Z,1.088080049
2022-09-16T09:03:48.888Z,0.787640035
2022-09-16T09:04:42.043Z,0.89320004
2022-09-16T09:05:41.549Z,0.836360037
2022-09-16T09:06:36.782Z,1.031239986
2022-09-16T09:07:36.980Z,0.730800033
2022-09-16T09:09:26.602Z,0.836360037
2022-09-16T09:10:20.763Z,1.063719988
2022-09-16T09:11:15.714Z,1.218000054
2022-09-16T09:12:16.862Z,1.697080135
2022-09-16T09:13:08.638Z,2.858240128
2022-09-16T09:14:06.186Z,1.762040138
2022-09-16T09:15:01.051Z,1.77828002
2022-09-16T09:15:58.442Z,1.079960108
2022-09-16T09:16:55.307Z,1.039360046
2022-09-16T09:17:48.650Z,0.657720029
2022-09-16T09:19:39.837Z,0.795760036
2022-09-16T09:20:37.789Z,0.836360037
2022-09-16T09:21:30.809Z,0.860720038
2022-09-16T09:22:27.714Z,0.803880036
2022-09-16T09:24:18.935Z,0.868840039
2022-09-16T09:25:19.380Z,0.852600038
2022-09-16T09:26:10.545Z,0.909440041
2022-09-16T09:27:11.226Z,0.950040042
2022-09-16T09:28:02.287Z,1.055600047
2022-09-16T09:29:00.153Z,0.933800042
2022-09-16T09:29:53.527Z,0.828240037
2022-09-16T09:30:51.251Z,1.177400112
2022-09-16T09:31:44.732Z,0.909440041
2022-09-16T09:32:49.424Z,1.063719988
2022-09-16T09:34:24.373Z,4.790800095
2022-09-16T09:35:25.683Z,8.266160011
2022-09-16T09:36:18.059Z,9.256800652
2022-09-16T09:37:19.976Z,6.01692009
2022-09-16T09:38:12.598Z,8.477280617
2022-09-16T09:39:51.607Z,12.19624043
2022-09-16T09:42:04.182Z,-0.073080003
2022-09-16T09:42:45.407Z,9.646560669
2022-09-16T09:44:44.512Z,10.64532089
2022-09-16T09:45:46.118Z,10.2149601
2022-09-16T09:46:42.440Z,5.505360126
2022-09-16T09:47:41.075Z,6.97508049
2022-09-16T09:48:42.267Z,6.52848053
2022-09-16T09:49:38.595Z,4.872000217
2022-09-16T09:50:38.819Z,2.801400185
2022-09-16T09:51:35.263Z,7.900760174
2022-09-16T09:52:36.470Z,6.902000427
2022-09-16T09:54:31.338Z,5.107480049
2022-09-16T09:55:31.553Z,2.151800156
2022-09-16T09:56:26.920Z,1.356040001
2022-09-16T09:57:26.651Z,1.664600134
2022-09-16T09:58:21.993Z,1.169280052
2022-09-16T09:59:19.457Z,1.307320118
2022-09-16T10:00:19.402Z,1.234240055
2022-09-16T10:01:14.369Z,1.437240124
2022-09-16T10:02:12.048Z,1.396640062
2022-09-16T10:03:14.824Z,1.12056005
2022-09-16T10:04:10.202Z,1.047480106
2022-09-16T10:05:07.799Z,1.502200127
2022-09-16T10:06:07.567Z,1.753920078
2022-09-16T10:08:58.005Z,1.494080067
2022-09-16T10:09:55.924Z,1.209880114
2022-09-16T10:11:22.790Z,2.622760057
2022-09-16T10:14:42.401Z,1.144920111
2022-09-16T10:15:41.957Z,0.876960039
2022-09-16T10:16:35.924Z,0.844480038
2022-09-16T10:17:34.650Z,0.909440041
2022-09-16T10:18:31.974Z,0.803880036
2022-09-16T10:19:30.894Z,0.787640035
2022-09-16T10:20:26.116Z,0.950040042
2022-09-16T10:21:26.051Z,0.958160043
2022-09-16T10:22:20.261Z,0.89320004
2022-09-16T10:23:22.902Z,0.820120037
2022-09-16T10:24:20.267Z,0.698320031
2022-09-16T10:25:11.857Z,1.485960007
2022-09-16T10:26:13.404Z,1.745800018
2022-09-16T10:27:06.987Z,2.111200094
2022-09-16T10:28:05.254Z,2.086840153
2022-09-16T10:29:00.580Z,1.818880081
2022-09-16T10:29:55.958Z,2.606520176
2022-09-16T10:30:55.995Z,1.79452014
2022-09-16T10:31:50.666Z,1.827000141
2022-09-16T10:32:49.105Z,1.380400062
2022-09-16T10:33:44.523Z,1.388520002
2022-09-16T10:34:48.484Z,0.982520044
2022-09-16T10:35:42.728Z,0.990640044
2022-09-16T10:36:39.876Z,1.201760054
2022-09-16T10:37:35.465Z,1.144920111
2022-09-16T10:38:34.008Z,1.023120046
2022-09-16T10:39:33.869Z,1.266720057
2022-09-16T10:40:26.293Z,1.201760054
2022-09-16T10:41:27.537Z,1.55904007
2022-09-16T10:42:20.922Z,1.372280121
2022-09-16T10:43:18.895Z,1.250480056
2022-09-16T10:44:17.186Z,1.331680059
2022-09-16T10:45:50.455Z,1.299200058
2022-09-16T10:46:46.246Z,0.88508004
2022-09-16T10:47:46.828Z,1.234240055
2022-09-16T10:50:03.724Z,1.169280052
2022-09-16T10:51:01.904Z,1.128679991
2022-09-16T10:52:00.713Z,1.169280052
2022-09-16T10:52:56.272Z,1.079960108
2022-09-16T10:54:50.860Z,1.088080049
2022-09-16T10:55:49.934Z,0.852600038
2022-09-16T10:57:42.253Z,1.12056005
2022-09-16T10:58:37.992Z,1.136800051
2022-09-16T10:59:37.653Z,1.258599997
2022-09-16T11:00:32.202Z,1.055600047
2022-09-16T11:01:32.687Z,1.323559999
2022-09-16T11:02:26.579Z,1.209880114
2022-09-16T11:03:28.580Z,1.047480106
2022-09-16T11:04:20.933Z,1.364160061
2022-09-16T11:05:25.540Z,1.494080067
2022-09-16T11:06:18.312Z,1.648360014
2022-09-16T11:07:13.386Z,1.640240073
2022-09-16T11:09:08.417Z,1.583400011
2022-09-16T11:10:10.976Z,1.875720024
2022-09-16T11:11:04.913Z,1.745800018
2022-09-16T11:12:05.381Z,1.396640062
2022-09-16T11:13:03.482Z,1.526560068
2022-09-16T11:13:56.121Z,2.151800156
2022-09-16T11:14:59.026Z,1.672720075
2022-09-16T11:15:51.587Z,1.591520071
2022-09-16T11:16:51.411Z,1.80264008
2022-09-16T11:17:46.828Z,1.997520089
2022-09-16T11:18:50.702Z,1.697080135
2022-09-16T11:18:53.030Z,1.697080135
2022-09-16T11:19:42.243Z,1.461600065
2022-09-16T11:20:45.993Z,1.412880063
2022-09-16T11:21:41.021Z,1.421000004
2022-09-16T11:22:35.793Z,1.534680128
2022-09-16T11:23:38.021Z,1.266720057
2022-09-16T11:24:30.851Z,1.323559999
2022-09-16T11:25:33.050Z,1.315440059
2022-09-16T11:26:56.804Z,-0.064960003
2022-09-16T11:27:37.071Z,1.071840048
2022-09-16T11:28:36.376Z,0.641480029
2022-09-16T11:29:37.693Z,0.958160043
2022-09-16T11:30:33.127Z,0.657720029
2022-09-16T11:31:32.521Z,0.738920033
2022-09-16T11:32:28.460Z,0.852600038
2022-09-16T11:33:28.096Z,0.909440041
2022-09-16T11:34:24.127Z,0.933800042
2022-09-16T11:35:23.759Z,1.144920111
2022-09-16T11:36:20.248Z,0.941920042
2022-09-16T11:37:22.237Z,1.161159992
2022-09-16T11:39:14.410Z,1.169280052
2022-09-16T11:40:09.494Z,0.90132004
2022-09-16T11:41:08.963Z,0.568400025
2022-09-16T11:42:04.689Z,0.714560032
2022-09-16T11:43:04.645Z,1.055600047
2022-09-16T11:44:00.023Z,1.315440059
2022-09-16T11:44:59.632Z,1.502200127
2022-09-16T11:45:55.870Z,1.274840117
2022-09-16T11:46:57.023Z,1.453480005
2022-09-16T11:47:52.480Z,1.599640131
2022-09-16T11:49:48.983Z,2.062479973
2022-09-16T11:50:52.309Z,1.908200026
2022-09-16T11:51:44.948Z,1.843240023
2022-09-16T11:52:44.295Z,1.989400148
2022-09-16T11:53:45.542Z,1.664600134
2022-09-16T11:54:40.173Z,2.257359982
2022-09-16T11:55:40.102Z,2.03000021
2022-09-16T11:56:35.542Z,1.80264008
2022-09-16T11:57:36.240Z,1.973160028
2022-09-16T11:58:31.672Z,1.891960144
2022-09-16T11:59:31.263Z,1.737680078
2022-09-16T12:00:27.626Z,2.2411201
2022-09-16T12:02:02.182Z,2.419760227
2022-09-16T12:05:49.493Z,-0.073080003
2022-09-16T12:06:29.464Z,2.436000109
2022-09-16T12:07:29.271Z,1.859480143
2022-09-16T12:08:24.362Z,2.070600033
2022-09-16T12:09:22.966Z,2.078720093
2022-09-16T12:10:21.632Z,2.168040037
2022-09-16T12:11:16.659Z,2.419760227
2022-09-16T12:12:16.029Z,2.419760227
2022-09-16T12:14:08.599Z,2.224880219
2022-09-16T12:15:08.060Z,2.086840153
2022-09-16T12:16:03.062Z,2.403520107
2022-09-16T12:17:02.492Z,2.614640236